Time;durP1;ratioP1;P1;durP2;ratioP2;P2;SDS_P1;SDS_P2;PMS_P1;PMS_P2;Temp;Humidity;BMP_temperature;BMP_pressure;BME280_temperature;BME280_humidity;BME280_pressure;Samples;Min_cycle;Max_cycle;Signal;HPM_P1;HPM_P2
2022/03/11 00:00:17;;;;;;;3.90;2.87;;;;;;;0.14;41.12;102569.31;1719127;83;21004;-74
2022/03/11 00:02:45;;;;;;;3.52;2.58;;;;;;;0.10;41.30;102570.86;1704860;82;21122;-73
2022/03/11 00:05:12;;;;;;;5.62;2.62;;;;;;;0.10;41.16;102566.13;1717243;82;20999;-73
2022/03/11 00:07:41;;;;;;;2.95;2.47;;;;;;;0.07;41.67;102567.24;1729734;82;21031;-74
2022/03/11 00:10:09;;;;;;;3.52;2.42;;;;;;;0.06;41.71;102561.67;1775401;79;20995;-74
2022/03/11 00:12:38;;;;;;;4.67;2.92;;;;;;;0.07;41.69;102568.52;1798966;79;21011;-74
2022/03/11 00:15:08;;;;;;;4.40;2.90;;;;;;;0.06;41.75;102559.11;1765438;80;21111;-72
2022/03/11 00:17:35;;;;;;;4.50;2.70;;;;;;;0.04;41.69;102563.27;1775024;80;21079;-73
2022/03/11 00:20:02;;;;;;;4.90;2.70;;;;;;;0.00;42.16;102564.38;1783331;77;21065;-73
2022/03/11 00:22:30;;;;;;;3.90;2.65;;;;;;;-0.01;42.37;102563.03;1770700;80;21102;-73
2022/03/11 00:24:57;;;;;;;4.37;2.80;;;;;;;-0.01;42.27;102560.48;1774166;79;21408;-73
2022/03/11 00:27:24;;;;;;;4.62;2.47;;;;;;;-0.02;41.99;102562.16;1754507;79;21047;-72
2022/03/11 00:29:50;;;;;;;5.05;3.00;;;;;;;-0.04;42.30;102559.03;1778419;79;21007;-74
2022/03/11 00:32:16;;;;;;;8.15;2.72;;;;;;;-0.07;41.48;102558.50;1778181;79;21034;-73
2022/03/11 00:34:43;;;;;;;4.83;2.37;;;;;;;-0.13;41.13;102554.77;1775532;80;20995;-73
2022/03/11 00:37:12;;;;;;;2.85;2.20;;;;;;;-0.18;42.04;102551.96;1762384;80;21008;-73
2022/03/11 00:39:38;;;;;;;2.92;2.33;;;;;;;-0.20;42.05;102551.02;1782672;79;21052;-73
2022/03/11 00:42:05;;;;;;;4.08;2.30;;;;;;;-0.23;41.22;102550.84;1789192;79;21053;-73
2022/03/11 00:44:32;;;;;;;3.20;2.67;;;;;;;-0.25;41.68;102539.66;1779463;79;21052;-73
2022/03/11 00:46:59;;;;;;;4.03;2.52;;;;;;;-0.23;41.71;102540.61;1780262;78;21548;-74
2022/03/11 00:49:26;;;;;;;4.28;2.50;;;;;;;-0.24;41.48;102546.55;1773496;79;21058;-72
2022/03/11 00:51:53;;;;;;;3.55;2.72;;;;;;;-0.26;40.88;102539.20;1777647;79;21513;-73
2022/03/11 00:54:20;;;;;;;3.62;2.70;;;;;;;-0.28;41.22;102534.41;1789546;79;21092;-73
2022/03/11 00:56:47;;;;;;;4.08;2.70;;;;;;;-0.28;41.84;102535.69;1783389;78;21035;-73
2022/03/11 00:59:15;;;;;;;5.33;2.75;;;;;;;-0.28;41.31;102536.08;1752045;79;22507;-73
2022/03/11 01:01:42;;;;;;;5.17;3.02;;;;;;;-0.30;41.78;102538.56;1784667;79;21509;-73
2022/03/11 01:04:09;;;;;;;4.53;2.90;;;;;;;-0.31;41.46;102529.13;1777018;80;20975;-73
2022/03/11 01:06:36;;;;;;;5.20;2.60;;;;;;;-0.32;41.43;102529.94;1772378;79;21455;-74
2022/03/11 01:09:03;;;;;;;2.60;2.17;;;;;;;-0.32;41.55;102537.61;1779530;79;21038;-73
2022/03/11 01:11:30;;;;;;;4.05;2.42;;;;;;;-0.34;41.67;102530.27;1790914;79;21076;-73
2022/03/11 01:13:58;;;;;;;3.33;2.50;;;;;;;-0.34;41.52;102534.09;1758838;80;22449;-73
2022/03/11 01:16:24;;;;;;;4.55;2.58;;;;;;;-0.33;41.90;102530.72;1772471;80;21015;-73
2022/03/11 01:18:50;;;;;;;2.92;2.33;;;;;;;-0.36;41.60;102525.47;1778041;79;21463;-73
2022/03/11 01:21:18;;;;;;;3.65;2.75;;;;;;;-0.33;41.82;102526.89;1772123;79;21030;-73
2022/03/11 01:23:45;;;;;;;4.45;2.42;;;;;;;-0.35;41.54;102527.21;1762316;80;21027;-73
2022/03/11 01:26:13;;;;;;;2.92;2.45;;;;;;;-0.33;41.67;102520.92;1777042;79;21105;-73
2022/03/11 01:28:42;;;;;;;2.35;1.82;;;;;;;-0.34;42.11;102523.87;1775475;79;21597;-73
2022/03/11 01:31:11;;;;;;;4.70;2.90;;;;;;;-0.34;42.17;102513.64;1788808;79;21518;-73
2022/03/11 01:33:43;;;;;;;4.28;2.27;;;;;;;-0.33;42.11;102517.08;1726618;83;21565;-73
2022/03/11 01:36:10;;;;;;;4.20;2.70;;;;;;;-0.34;42.26;102516.20;1605012;88;21552;-73
2022/03/11 01:38:37;;;;;;;3.33;2.60;;;;;;;-0.31;42.55;102518.03;1568726;90;21162;-73
2022/03/11 01:41:04;;;;;;;4.87;2.50;;;;;;;-0.29;42.25;102512.17;1599928;87;21175;-73
2022/03/11 01:43:35;;;;;;;4.33;2.27;;;;;;;-0.30;42.47;102514.27;1606863;88;21154;-73
2022/03/11 01:46:01;;;;;;;6.08;3.02;;;;;;;-0.32;42.09;102514.59;1527974;92;21095;-73
2022/03/11 01:48:28;;;;;;;3.33;2.30;;;;;;;-0.35;42.04;102506.75;1507500;94;21563;-73
2022/03/11 01:50:54;;;;;;;3.25;2.33;;;;;;;-0.37;42.44;102513.47;1533102;93;21090;-73
2022/03/11 01:53:21;;;;;;;3.90;2.52;;;;;;;-0.37;42.67;102512.19;1502256;93;21070;-73
2022/03/11 01:55:47;;;;;;;3.37;2.40;;;;;;;-0.38;42.87;102516.84;1536000;92;21110;-72
2022/03/11 01:58:14;;;;;;;3.17;2.52;;;;;;;-0.36;42.65;102507.56;1513443;94;21138;-73
2022/03/11 02:00:41;;;;;;;5.55;2.92;;;;;;;-0.35;42.82;102504.19;1529502;93;21033;-74
2022/03/11 02:03:07;;;;;;;4.70;2.50;;;;;;;-0.36;42.58;102508.84;1528526;93;21075;-75
2022/03/11 02:05:35;;;;;;;4.37;2.70;;;;;;;-0.38;42.45;102506.61;1534766;92;21172;-74
2022/03/11 02:08:02;;;;;;;3.37;2.37;;;;;;;-0.40;42.59;102502.22;1537058;92;21080;-73
2022/03/11 02:10:30;;;;;;;4.05;2.65;;;;;;;-0.44;43.20;102506.31;1513942;93;21123;-73
2022/03/11 02:12:57;;;;;;;4.22;2.95;;;;;;;-0.50;43.54;102506.00;1511499;93;21075;-73
2022/03/11 02:15:24;;;;;;;4.83;2.77;;;;;;;-0.57;43.18;102502.64;1521897;93;21588;-73
2022/03/11 02:17:50;;;;;;;3.15;2.62;;;;;;;-0.59;43.69;102507.19;1513296;93;21137;-73
2022/03/11 02:20:17;;;;;;;5.22;2.83;;;;;;;-0.61;43.83;102499.45;1513011;94;21086;-74
2022/03/11 02:22:47;;;;;;;4.10;3.10;;;;;;;-0.62;43.93;102502.83;1529236;91;21060;-74
2022/03/11 02:25:15;;;;;;;2.77;2.37;;;;;;;-0.62;43.43;102504.11;1560589;90;21100;-73
2022/03/11 02:27:48;;;;;;;4.67;2.50;;;;;;;-0.62;43.48;102499.39;1594455;88;21716;-73
2022/03/11 02:30:18;;;;;;;3.75;2.77;;;;;;;-0.64;43.62;102496.77;1594744;87;21047;-73
2022/03/11 02:32:46;;;;;;;5.53;2.65;;;;;;;-0.62;43.96;102497.72;1575061;88;21080;-74
2022/03/11 02:35:14;;;;;;;5.20;2.98;;;;;;;-0.62;44.20;102499.00;1565059;89;21046;-73
2022/03/11 02:37:43;;;;;;;2.55;2.12;;;;;;;-0.62;44.14;102497.72;1605947;87;21078;-74
2022/03/11 02:40:09;;;;;;;4.95;3.05;;;;;;;-0.65;44.56;102494.98;1601847;87;21188;-74
2022/03/11 02:42:37;;;;;;;4.37;2.70;;;;;;;-0.65;44.26;102502.66;1601431;87;21060;-73
2022/03/11 02:45:06;;;;;;;5.67;3.10;;;;;;;-0.67;44.75;102499.14;1601630;87;21074;-74
2022/03/11 02:47:33;;;;;;;5.05;2.83;;;;;;;-0.67;44.28;102505.53;1595266;87;21844;-73
2022/03/11 02:50:00;;;;;;;3.98;2.83;;;;;;;-0.69;44.57;102499.47;1603266;88;21113;-74
2022/03/11 02:52:28;;;;;;;3.50;2.75;;;;;;;-0.70;45.04;102493.86;1597254;87;21565;-74
2022/03/11 02:54:55;;;;;;;3.80;2.75;;;;;;;-0.72;45.02;102499.30;1632569;86;21603;-73
2022/03/11 02:57:21;;;;;;;5.47;2.75;;;;;;;-0.71;44.54;102489.56;1624658;87;21089;-73
2022/03/11 02:59:48;;;;;;;3.25;2.50;;;;;;;-0.71;44.82;102494.68;1633387;87;21065;-73
2022/03/11 03:02:15;;;;;;;3.87;2.92;;;;;;;-0.69;45.22;102499.47;1619214;87;21182;-72
2022/03/11 03:04:43;;;;;;;4.50;2.90;;;;;;;-0.68;45.21;102496.09;1618867;88;21104;-76
2022/03/11 03:07:09;;;;;;;6.92;2.90;;;;;;;-0.69;45.55;102500.75;1623170;87;21587;-74
2022/03/11 03:09:41;;;;;;;4.67;2.70;;;;;;;-0.70;46.11;102497.70;1620889;88;21044;-73
2022/03/11 03:12:10;;;;;;;4.08;2.85;;;;;;;-0.74;45.91;102507.28;1617521;87;21102;-75
2022/03/11 03:14:37;;;;;;;3.62;2.50;;;;;;;-0.76;46.70;102500.36;1624246;87;21041;-74
2022/03/11 03:17:05;;;;;;;3.65;2.90;;;;;;;-0.79;47.43;102511.30;1624982;88;21045;-73
2022/03/11 03:19:33;;;;;;;4.80;2.85;;;;;;;-0.85;47.78;102503.32;1625410;87;21691;-73
2022/03/11 03:22:00;;;;;;;4.78;2.98;;;;;;;-0.91;48.15;102515.78;1619233;87;21089;-75
2022/03/11 03:24:27;;;;;;;5.72;2.60;;;;;;;-0.97;49.05;102525.68;1621860;88;21144;-73
2022/03/11 03:26:56;;;;;;;5.37;3.42;;;;;;;-1.00;49.57;102517.84;1620970;88;21060;-72
2022/03/11 03:29:23;;;;;;;3.42;2.90;;;;;;;-1.01;49.65;102522.06;1688183;79;21050;-72
2022/03/11 03:31:57;;;;;;;7.15;3.42;;;;;;;-1.02;49.42;102529.66;1768392;79;21593;-73
2022/03/11 03:34:20;;;;;;;4.00;2.80;;;;;;;-1.04;49.48;102525.75;1776297;79;21020;-74
2022/03/11 03:36:46;;;;;;;4.28;3.42;;;;;;;-1.05;49.88;102515.46;1778232;79;21519;-74
2022/03/11 03:39:13;;;;;;;6.28;3.30;;;;;;;-1.05;49.80;102516.73;1773387;80;21031;-73
2022/03/11 03:41:40;;;;;;;4.60;2.85;;;;;;;-1.07;49.25;102523.45;1762896;79;23357;-73
2022/03/11 03:44:07;;;;;;;4.87;3.47;;;;;;;-1.09;50.01;102531.00;1788279;79;21059;-73
2022/03/11 03:46:34;;;;;;;5.08;3.17;;;;;;;-1.11;50.03;102524.05;1771976;80;21034;-73
2022/03/11 03:49:00;;;;;;;3.40;2.72;;;;;;;-1.11;50.14;102526.60;1772380;79;20990;-74
2022/03/11 03:51:26;;;;;;;5.37;3.12;;;;;;;-1.12;50.27;102524.86;1781417;79;21062;-73
2022/03/11 03:53:53;;;;;;;7.03;2.95;;;;;;;-1.11;50.43;102522.38;1787427;79;21006;-73
2022/03/11 03:56:20;;;;;;;4.83;3.40;;;;;;;-1.09;50.39;102527.56;1785346;79;21097;-72
2022/03/11 03:58:48;;;;;;;8.50;3.37;;;;;;;-1.09;50.75;102530.11;1798347;79;21381;-73
2022/03/11 04:01:14;;;;;;;5.47;3.05;;;;;;;-1.12;50.85;102532.52;1784043;79;20991;-74
2022/03/11 04:03:42;;;;;;;3.75;2.95;;;;;;;-1.13;50.69;102529.08;1772363;79;21526;-74
2022/03/11 04:06:09;;;;;;;6.22;3.20;;;;;;;-1.17;50.34;102533.55;1781698;79;21005;-75
2022/03/11 04:08:35;;;;;;;7.33;4.33;;;;;;;-1.18;50.86;102519.42;1774074;79;21025;-74
2022/03/11 04:11:02;;;;;;;5.42;3.30;;;;;;;-1.19;51.29;102513.82;1793832;79;21077;-73
2022/03/11 04:13:29;;;;;;;6.20;3.65;;;;;;;-1.20;51.00;102523.58;1772072;79;21054;-73
2022/03/11 04:15:56;;;;;;;3.98;3.05;;;;;;;-1.23;51.27;102519.17;1781974;79;21469;-72
2022/03/11 04:18:24;;;;;;;9.85;4.15;;;;;;;-1.24;51.41;102516.55;1770932;80;21082;-73
2022/03/11 04:20:51;;;;;;;5.40;3.40;;;;;;;-1.24;51.03;102525.09;1786878;79;21069;-73
2022/03/11 04:23:17;;;;;;;6.87;4.37;;;;;;;-1.22;50.92;102526.45;1783675;79;20998;-73
2022/03/11 04:25:44;;;;;;;5.17;3.52;;;;;;;-1.20;50.16;102523.19;1785343;79;21539;-73
2022/03/11 04:28:12;;;;;;;10.65;4.72;;;;;;;-1.20;49.79;102526.13;1770971;80;20987;-73
2022/03/11 04:30:40;;;;;;;8.53;3.87;;;;;;;-1.20;49.66;102522.30;1754612;80;21616;-73
2022/03/11 04:33:07;;;;;;;6.58;3.75;;;;;;;-1.20;48.88;102521.02;1768492;80;21034;-73
2022/03/11 04:35:34;;;;;;;4.85;3.80;;;;;;;-1.20;49.03;102522.30;1776856;80;21053;-73
2022/03/11 04:38:00;;;;;;;4.78;3.42;;;;;;;-1.17;49.07;102522.45;1777095;79;21097;-74
2022/03/11 04:40:27;;;;;;;3.58;2.80;;;;;;;-1.17;48.67;102519.89;1787911;79;21011;-74
2022/03/11 04:42:53;;;;;;;3.72;2.75;;;;;;;-1.16;47.96;102524.22;1770091;80;21070;-72
2022/03/11 04:45:20;;;;;;;3.65;2.87;;;;;;;-1.15;47.75;102527.23;1760649;79;21038;-76
2022/03/11 04:47:46;;;;;;;3.72;2.87;;;;;;;-1.16;48.30;102520.00;1770670;79;21021;-74
2022/03/11 04:50:13;;;;;;;4.08;2.92;;;;;;;-1.16;48.29;102520.39;1779674;79;21020;-73
2022/03/11 04:52:39;;;;;;;4.37;3.20;;;;;;;-1.16;47.98;102522.94;1784969;79;21034;-73
2022/03/11 04:55:07;;;;;;;4.83;2.98;;;;;;;-1.17;48.06;102523.72;1776076;79;21046;-73
2022/03/11 04:57:36;;;;;;;4.67;2.90;;;;;;;-1.18;48.27;102525.42;1767707;79;21037;-72
2022/03/11 05:00:04;;;;;;;7.05;3.62;;;;;;;-1.17;48.41;102524.61;1766097;79;21011;-73
2022/03/11 05:02:30;;;;;;;4.45;3.35;;;;;;;-1.14;48.32;102526.45;1762747;80;21632;-73
2022/03/11 05:05:08;;;;;;;5.37;3.95;;;;;;;-1.13;48.53;102534.58;1771602;80;21683;-73
2022/03/11 05:07:35;;;;;;;4.10;3.12;;;;;;;-1.12;48.12;102534.69;1785478;79;21594;-74
2022/03/11 05:10:03;;;;;;;4.97;3.12;;;;;;;-1.13;48.28;102536.74;1769202;79;21042;-74
2022/03/11 05:12:31;;;;;;;3.83;3.40;;;;;;;-1.12;48.58;102543.62;1781660;80;21061;-73
2022/03/11 05:14:59;;;;;;;4.53;3.33;;;;;;;-1.10;48.42;102538.59;1773749;79;21039;-73
2022/03/11 05:17:25;;;;;;;7.25;4.08;;;;;;;-1.10;48.40;102545.86;1757922;78;20998;-73
2022/03/11 05:19:53;;;;;;;5.33;3.40;;;;;;;-1.08;48.67;102540.83;1780900;79;20990;-73
2022/03/11 05:22:20;;;;;;;4.47;3.12;;;;;;;-1.07;48.82;102542.60;1771757;79;21042;-74
2022/03/11 05:24:47;;;;;;;4.30;3.20;;;;;;;-1.07;48.69;102539.63;1771272;79;22111;-73
2022/03/11 05:27:14;;;;;;;3.72;3.05;;;;;;;-1.08;48.59;102531.89;1786847;79;21061;-77
2022/03/11 05:29:41;;;;;;;4.55;3.20;;;;;;;-1.09;48.70;102537.39;1778270;79;21030;-74
2022/03/11 05:32:09;;;;;;;4.45;3.05;;;;;;;-1.10;48.45;102529.65;1785426;79;21049;-74
2022/03/11 05:34:39;;;;;;;5.47;4.33;;;;;;;-1.12;48.33;102528.69;1765513;80;21097;-73
2022/03/11 05:37:05;;;;;;;5.12;3.52;;;;;;;-1.11;48.98;102531.70;1785420;79;20986;-74
2022/03/11 05:39:33;;;;;;;5.78;4.28;;;;;;;-1.09;48.66;102523.73;1777204;79;21011;-74
2022/03/11 05:42:00;;;;;;;7.42;4.65;;;;;;;-1.07;48.99;102528.55;1791769;79;21107;-74
2022/03/11 05:44:26;;;;;;;4.53;3.58;;;;;;;-1.04;49.00;102519.36;1781816;79;21518;-74
2022/03/11 05:46:53;;;;;;;3.83;3.10;;;;;;;-1.01;48.45;102523.77;1781044;79;21026;-73
2022/03/11 05:49:20;;;;;;;3.70;3.17;;;;;;;-0.98;47.90;102517.52;1748172;80;21046;-75
2022/03/11 05:51:46;;;;;;;6.03;3.83;;;;;;;-0.93;47.70;102512.27;1770822;80;21053;-74
2022/03/11 05:54:13;;;;;;;5.95;4.28;;;;;;;-0.91;47.68;102518.34;1769094;79;21475;-75
2022/03/11 05:56:39;;;;;;;5.30;3.92;;;;;;;-0.92;48.26;102511.45;1767779;79;20979;-74
2022/03/11 05:59:07;;;;;;;3.58;2.95;;;;;;;-0.91;48.66;102528.55;1779998;79;21038;-73
2022/03/11 06:01:34;;;;;;;5.22;3.22;;;;;;;-0.87;48.69;102519.83;1756744;80;21569;-74
2022/03/11 06:04:04;;;;;;;5.50;3.80;;;;;;;-0.85;48.81;102527.20;1778594;79;21550;-73
2022/03/11 06:06:33;;;;;;;3.62;2.70;;;;;;;-0.82;48.79;102517.13;1765185;79;21020;-74
2022/03/11 06:09:00;;;;;;;4.33;3.35;;;;;;;-0.79;49.34;102510.41;1775694;79;21085;-73
2022/03/11 06:11:28;;;;;;;3.98;3.45;;;;;;;-0.79;49.52;102516.80;1767980;79;21027;-74
2022/03/11 06:13:55;;;;;;;5.50;3.67;;;;;;;-0.84;48.83;102522.56;1769362;80;20998;-74
2022/03/11 06:16:21;;;;;;;3.67;3.00;;;;;;;-0.85;49.40;102525.04;1766783;80;21022;-74
2022/03/11 06:18:48;;;;;;;4.37;3.42;;;;;;;-0.87;48.95;102515.14;1760911;80;21101;-74
2022/03/11 06:21:14;;;;;;;6.42;3.77;;;;;;;-0.88;49.30;102527.03;1768810;80;21010;-74
2022/03/11 06:23:41;;;;;;;3.65;2.80;;;;;;;-0.88;49.63;102518.48;1757476;80;21533;-73
2022/03/11 06:26:08;;;;;;;4.87;3.83;;;;;;;-0.87;49.46;102518.97;1772893;79;21054;-73
2022/03/11 06:28:34;;;;;;;8.10;2.92;;;;;;;-0.87;50.09;102515.99;1775073;80;21031;-74
2022/03/11 06:31:01;;;;;;;9.08;3.15;;;;;;;-0.83;50.50;102519.61;1770081;80;20978;-74
2022/03/11 06:33:27;;;;;;;3.95;3.10;;;;;;;-0.79;50.17;102521.52;1785864;79;21030;-73
2022/03/11 06:35:54;;;;;;;5.85;3.72;;;;;;;-0.77;49.75;102512.26;1767808;79;21512;-75
2022/03/11 06:38:21;;;;;;;4.78;3.62;;;;;;;-0.77;49.44;102516.09;1787672;79;20998;-73
2022/03/11 06:40:51;;;;;;;5.22;2.95;;;;;;;-0.76;49.83;102508.89;1790451;79;21027;-74
2022/03/11 06:43:18;;;;;;;5.15;3.52;;;;;;;-0.76;49.07;102506.33;1766429;79;20974;-73
2022/03/11 06:45:44;;;;;;;7.85;4.08;;;;;;;-0.74;48.25;102509.84;1775482;79;21046;-74
2022/03/11 06:48:12;;;;;;;7.50;4.87;;;;;;;-0.72;48.22;102504.41;1778858;79;21051;-73
2022/03/11 06:50:39;;;;;;;7.33;3.95;;;;;;;-0.65;48.21;102511.61;1786883;79;21025;-76
2022/03/11 06:53:07;;;;;;;7.28;4.87;;;;;;;-0.60;47.77;102496.11;1773864;79;21023;-73
2022/03/11 06:55:34;;;;;;;6.37;4.00;;;;;;;-0.53;47.43;102503.27;1782198;80;21495;-73
2022/03/11 06:58:01;;;;;;;4.45;3.02;;;;;;;-0.46;47.93;102506.63;1779008;79;21535;-74
2022/03/11 07:00:28;;;;;;;5.25;3.02;;;;;;;-0.41;47.37;102506.45;1781099;79;21137;-74
2022/03/11 07:02:55;;;;;;;5.17;3.70;;;;;;;-0.36;47.71;102520.36;1765377;80;21065;-73
2022/03/11 07:05:22;;;;;;;6.28;3.70;;;;;;;-0.35;47.58;102511.87;1768811;80;21038;-74
2022/03/11 07:07:48;;;;;;;6.53;4.10;;;;;;;-0.34;47.52;102512.36;1765057;79;21027;-73
2022/03/11 07:10:17;;;;;;;4.35;3.33;;;;;;;-0.31;47.92;102515.48;1768416;79;21037;-73
2022/03/11 07:12:44;;;;;;;5.92;3.47;;;;;;;-0.29;47.90;102507.48;1766439;80;21094;-74
2022/03/11 07:15:11;;;;;;;4.33;3.75;;;;;;;-0.23;49.03;102507.78;1763335;80;21021;-73
2022/03/11 07:17:39;;;;;;;5.03;3.17;;;;;;;-0.16;49.70;102506.87;1765829;80;21053;-74
2022/03/11 07:20:07;;;;;;;6.12;3.15;;;;;;;-0.08;49.50;102499.55;1772859;79;21503;-73
2022/03/11 07:22:35;;;;;;;5.03;3.60;;;;;;;-0.06;49.45;102503.95;1779949;79;21094;-74
2022/03/11 07:25:03;;;;;;;4.40;3.58;;;;;;;-0.05;49.84;102507.39;1763252;79;22316;-74
2022/03/11 07:27:30;;;;;;;4.58;3.47;;;;;;;-0.04;49.75;102503.63;1772317;80;21056;-74
2022/03/11 07:29:57;;;;;;;3.17;2.85;;;;;;;0.00;50.32;102490.59;1787420;79;21583;-73
2022/03/11 07:32:25;;;;;;;4.08;3.08;;;;;;;0.09;50.82;102500.38;1788987;79;21046;-74
2022/03/11 07:34:52;;;;;;;4.05;2.98;;;;;;;0.14;50.27;102493.81;1710374;82;21050;-74
2022/03/11 07:37:20;;;;;;;4.40;3.60;;;;;;;0.17;50.74;102492.66;1721760;83;21613;-74
2022/03/11 07:39:48;;;;;;;4.30;3.30;;;;;;;0.14;50.32;102489.97;1723934;83;21035;-74
2022/03/11 07:42:15;;;;;;;5.25;3.08;;;;;;;0.11;50.60;102491.09;1716236;83;21533;-75
2022/03/11 07:44:44;;;;;;;5.25;3.20;;;;;;;0.06;49.60;102485.77;1723622;83;21073;-76
2022/03/11 07:47:10;;;;;;;6.72;3.00;;;;;;;0.02;49.86;102494.50;1718834;83;21158;-73
2022/03/11 07:49:37;;;;;;;5.78;2.75;;;;;;;-0.03;48.03;102492.60;1721334;83;21052;-74
2022/03/11 07:52:05;;;;;;;4.05;3.02;;;;;;;-0.05;48.56;102491.66;1700175;82;20988;-74
2022/03/11 07:54:33;;;;;;;5.05;3.60;;;;;;;-0.04;49.14;102486.99;1710312;82;21610;-74
2022/03/11 07:56:59;;;;;;;5.92;3.50;;;;;;;0.00;48.64;102491.45;1718529;83;20979;-74
2022/03/11 07:59:29;;;;;;;4.67;3.25;;;;;;;-0.01;48.26;102488.83;1712390;83;21148;-74
2022/03/11 08:01:54;;;;;;;5.08;3.52;;;;;;;0.01;48.58;102479.55;1711900;82;21070;-74
2022/03/11 08:04:22;;;;;;;6.10;3.30;;;;;;;0.05;48.52;102483.12;1714166;82;21526;-75
2022/03/11 08:06:51;;;;;;;4.97;3.10;;;;;;;0.14;49.76;102495.09;1732330;82;21101;-74
2022/03/11 08:09:17;;;;;;;4.05;2.62;;;;;;;0.21;49.58;102486.88;1702526;82;21126;-74
2022/03/11 08:11:45;;;;;;;5.58;3.10;;;;;;;0.24;47.59;102473.84;1711685;82;21040;-74
2022/03/11 08:14:13;;;;;;;3.62;2.72;;;;;;;0.31;48.73;102486.53;1698101;83;21053;-73
2022/03/11 08:16:41;;;;;;;3.75;2.90;;;;;;;0.38;49.83;102478.31;1697197;83;21501;-73
2022/03/11 08:19:11;;;;;;;5.22;2.75;;;;;;;0.43;50.03;102476.86;1694729;83;21085;-73
2022/03/11 08:21:38;;;;;;;3.35;2.52;;;;;;;0.50;48.80;102481.05;1700079;83;21636;-74
2022/03/11 08:24:07;;;;;;;2.72;2.40;;;;;;;0.56;49.36;102479.16;1716039;80;21045;-73
2022/03/11 08:26:33;;;;;;;3.85;2.67;;;;;;;0.60;48.66;102475.92;1755995;80;20982;-73
2022/03/11 08:29:01;;;;;;;5.30;3.30;;;;;;;0.60;48.83;102482.33;1765139;78;21090;-74
2022/03/11 08:31:27;;;;;;;3.58;2.80;;;;;;;0.63;48.35;102479.92;1771486;79;21049;-75
2022/03/11 08:33:55;;;;;;;17.75;7.95;;;;;;;0.61;47.41;102475.14;1760264;79;21057;-74
2022/03/11 08:36:22;;;;;;;10.40;6.60;;;;;;;0.60;47.28;102472.97;1757583;80;21670;-74
2022/03/11 08:38:48;;;;;;;3.72;2.95;;;;;;;0.61;45.83;102473.86;1786401;79;21010;-74
2022/03/11 08:41:16;;;;;;;3.50;2.77;;;;;;;0.61;45.42;102476.02;1775573;79;21026;-74
2022/03/11 08:43:48;;;;;;;3.40;2.80;;;;;;;0.61;46.27;102476.42;1794591;79;20971;-74
2022/03/11 08:46:12;;;;;;;4.97;3.15;;;;;;;0.60;46.50;102483.61;1799439;79;21023;-75
2022/03/11 08:48:41;;;;;;;5.25;2.75;;;;;;;0.59;46.15;102480.59;1783198;79;21554;-75
2022/03/11 08:51:08;;;;;;;3.40;2.50;;;;;;;0.61;46.19;102476.42;1785501;79;21057;-74
2022/03/11 08:53:35;;;;;;;3.08;2.42;;;;;;;0.64;46.05;102481.66;1778823;79;21508;-73
2022/03/11 08:56:03;;;;;;;5.83;2.62;;;;;;;0.67;45.73;102479.25;1758956;80;21034;-74
2022/03/11 08:58:30;;;;;;;5.53;2.80;;;;;;;0.64;46.58;102475.26;1763762;80;21045;-74
2022/03/11 09:00:57;;;;;;;3.22;2.62;;;;;;;0.59;46.07;102478.03;1770625;80;21003;-74
2022/03/11 09:03:25;;;;;;;3.95;2.87;;;;;;;0.59;46.65;102480.59;1766290;80;21515;-74
2022/03/11 09:05:52;;;;;;;4.05;3.00;;;;;;;0.61;45.83;102473.86;1758694;79;21074;-74
2022/03/11 09:08:21;;;;;;;4.60;2.40;;;;;;;0.64;45.08;102471.41;1773200;79;21023;-74
2022/03/11 09:10:49;;;;;;;3.50;2.90;;;;;;;0.71;45.70;102481.14;1769160;80;21024;-75
2022/03/11 09:13:16;;;;;;;5.20;2.58;;;;;;;0.79;46.62;102474.68;1768013;80;21075;-74
2022/03/11 09:15:42;;;;;;;5.47;2.60;;;;;;;0.85;45.13;102480.08;1771524;80;21488;-74
2022/03/11 09:18:10;;;;;;;4.55;2.70;;;;;;;0.92;45.22;102473.55;1722757;82;21889;-74
2022/03/11 09:20:37;;;;;;;5.50;2.87;;;;;;;0.98;44.02;102473.42;1732989;82;21027;-78
2022/03/11 09:23:04;;;;;;;3.67;2.83;;;;;;;1.03;46.29;102479.61;1729593;80;21530;-74
2022/03/11 09:25:31;;;;;;;4.55;3.22;;;;;;;1.09;47.92;102477.73;1781145;79;20991;-76
2022/03/11 09:28:02;;;;;;;3.70;2.52;;;;;;;1.07;47.76;102487.90;1762427;80;21085;-74
2022/03/11 09:30:29;;;;;;;4.17;2.90;;;;;;;1.00;46.55;102470.91;1778880;78;21013;-75
2022/03/11 09:32:55;;;;;;;3.92;3.15;;;;;;;0.92;46.53;102474.43;1753518;80;21003;-75
2022/03/11 09:35:23;;;;;;;4.67;3.12;;;;;;;0.87;45.88;102473.77;1754429;81;21077;-75
2022/03/11 09:37:50;;;;;;;4.92;2.87;;;;;;;0.85;46.03;102477.52;1688732;84;21058;-74
2022/03/11 09:40:18;;;;;;;2.72;2.52;;;;;;;0.88;45.96;102478.95;1696751;83;21038;-76
2022/03/11 09:42:46;;;;;;;5.33;3.83;;;;;;;0.88;46.45;102475.11;1689227;84;21113;-74
2022/03/11 09:45:13;;;;;;;4.10;3.17;;;;;;;0.87;47.72;102478.89;1693132;83;21002;-74
2022/03/11 09:47:41;;;;;;;4.80;2.98;;;;;;;0.83;48.13;102480.41;1694024;83;21083;-76
2022/03/11 09:50:08;;;;;;;6.30;3.40;;;;;;;0.76;49.55;102484.81;1689161;82;21030;-74
2022/03/11 09:52:36;;;;;;;5.05;3.17;;;;;;;0.70;49.99;102479.41;1710583;82;21525;-75
2022/03/11 09:55:05;;;;;;;3.47;2.80;;;;;;;0.60;49.60;102482.33;1758108;80;20996;-74
2022/03/11 09:57:34;;;;;;;6.45;3.67;;;;;;;0.55;49.49;102477.42;1762982;80;21093;-74
2022/03/11 10:00:01;;;;;;;5.72;3.62;;;;;;;0.55;49.40;102481.27;1765232;80;21025;-74
2022/03/11 10:02:28;;;;;;;4.83;3.15;;;;;;;0.61;49.64;102470.02;1783973;79;21124;-74
2022/03/11 10:04:57;;;;;;;4.05;3.20;;;;;;;0.69;49.49;102471.23;1760670;80;20965;-76
2022/03/11 10:07:29;;;;;;;4.72;2.75;;;;;;;0.79;50.21;102490.05;1790342;79;21010;-75
2022/03/11 10:09:57;;;;;;;4.78;3.42;;;;;;;0.82;50.13;102479.95;1793736;79;20999;-74
2022/03/11 10:12:27;;;;;;;6.10;3.62;;;;;;;0.80;49.11;102476.45;1783798;79;20998;-74
2022/03/11 10:15:01;;;;;;;6.10;3.33;;;;;;;0.80;48.03;102479.02;1774856;80;21049;-75
2022/03/11 10:17:39;;;;;;;3.95;3.05;;;;;;;0.82;47.69;102476.11;1752225;80;21156;-75
2022/03/11 10:20:14;;;;;;;5.00;3.60;;;;;;;0.82;50.85;102485.09;1637028;85;21023;-74
2022/03/11 10:22:52;;;;;;;5.28;3.25;;;;;;;0.77;51.11;102475.02;1672595;85;21571;-75
2022/03/11 10:25:29;;;;;;;4.53;2.92;;;;;;;0.73;49.92;102471.84;1663419;85;21128;-74
2022/03/11 10:28:09;;;;;;;5.05;3.22;;;;;;;0.78;49.45;102476.79;1588261;89;21113;-75
2022/03/11 10:30:41;;;;;;;4.60;3.70;;;;;;;0.84;48.35;102474.50;1541896;91;21572;-76
2022/03/11 10:33:14;;;;;;;5.47;3.72;;;;;;;0.88;50.37;102469.98;1552310;91;21197;-76
2022/03/11 10:35:49;;;;;;;4.35;3.85;;;;;;;0.83;49.29;102474.01;1514831;93;21067;-77
2022/03/11 10:38:20;;;;;;;4.53;3.40;;;;;;;0.82;48.89;102474.83;1514658;94;21563;-75
2022/03/11 10:40:55;;;;;;;3.70;2.92;;;;;;;0.82;47.79;102467.14;1526030;93;21087;-75
2022/03/11 10:43:30;;;;;;;5.45;3.72;;;;;;;0.87;49.18;102469.49;1518429;93;21130;-75
2022/03/11 10:46:06;;;;;;;6.95;5.00;;;;;;;0.88;48.87;102471.27;1488615;95;21136;-75
2022/03/11 10:48:49;;;;;;;5.40;4.00;;;;;;;0.90;47.82;102465.80;1513844;93;21109;-74
2022/03/11 10:51:33;;;;;;;5.53;2.77;;;;;;;0.94;46.41;102469.36;1543534;91;21072;-74
2022/03/11 10:54:04;;;;;;;4.17;2.98;;;;;;;1.00;46.34;102462.83;1505073;94;21735;-75
2022/03/11 10:56:39;;;;;;;4.95;3.85;;;;;;;1.13;47.45;102457.44;1483823;94;21108;-75
2022/03/11 10:59:21;;;;;;;5.62;3.62;;;;;;;1.22;48.85;102464.22;1481097;94;21619;-76
2022/03/11 11:01:50;;;;;;;5.20;3.85;;;;;;;1.17;47.40;102461.88;1480198;94;21097;-74
2022/03/11 11:04:17;;;;;;;9.00;6.05;;;;;;;1.06;46.57;102465.66;1491928;94;21212;-75
2022/03/11 11:06:45;;;;;;;10.38;6.05;;;;;;;0.99;46.89;102462.34;1553853;87;21108;-75
2022/03/11 11:09:14;;;;;;;12.93;7.42;;;;;;;0.94;46.11;102465.52;1620556;86;21603;-75
2022/03/11 11:11:44;;;;;;;7.72;4.55;;;;;;;0.99;47.22;102465.33;1632206;87;21129;-75
2022/03/11 11:14:12;;;;;;;6.22;4.05;;;;;;;1.06;48.39;102459.64;1603628;87;21138;-75
2022/03/11 11:16:44;;;;;;;4.05;3.55;;;;;;;1.07;48.37;102468.67;1584028;89;21154;-75
2022/03/11 11:19:17;;;;;;;5.47;3.37;;;;;;;1.08;47.67;102462.75;1521034;92;21049;-75
2022/03/11 11:21:47;;;;;;;4.47;3.58;;;;;;;1.13;47.20;102471.53;1516011;94;21671;-75
2022/03/11 11:24:19;;;;;;;5.78;3.22;;;;;;;1.20;45.80;102468.41;1516132;94;21149;-76
2022/03/11 11:26:55;;;;;;;6.55;3.25;;;;;;;1.30;45.23;102461.58;1504498;94;21111;-75
2022/03/11 11:29:29;;;;;;;4.28;3.72;;;;;;;1.41;44.72;102469.73;1517836;94;21144;-75
2022/03/11 11:31:57;;;;;;;6.58;3.90;;;;;;;1.38;45.98;102462.77;1524786;92;21065;-75